sensor_id;sensor_type;location;lat;lon;timestamp;P1;durP1;ratioP1;P2;durP2;ratioP2
22715;SDS011;11525;51.152;4.456;2022-09-09T00:09:38;17.85;;;5.43;;
22715;SDS011;11525;51.152;4.456;2022-09-09T00:12:11;11.63;;;4.78;;
22715;SDS011;11525;51.152;4.456;2022-09-09T00:14:49;10.23;;;5.10;;
22715;SDS011;11525;51.152;4.456;2022-09-09T00:19:46;10.52;;;4.68;;
22715;SDS011;11525;51.152;4.456;2022-09-09T00:22:34;9.02;;;4.75;;
22715;SDS011;11525;51.152;4.456;2022-09-09T00:25:02;6.28;;;4.40;;
22715;SDS011;11525;51.152;4.456;2022-09-09T00:27:45;8.80;;;4.85;;
22715;SDS011;11525;51.152;4.456;2022-09-09T00:32:39;10.45;;;4.50;;
22715;SDS011;11525;51.152;4.456;2022-09-09T00:35:25;9.80;;;4.30;;
22715;SDS011;11525;51.152;4.456;2022-09-09T00:37:56;11.80;;;4.75;;
22715;SDS011;11525;51.152;4.456;2022-09-09T00:40:32;7.20;;;4.43;;
22715;SDS011;11525;51.152;4.456;2022-09-09T00:54:13;8.20;;;4.05;;
22715;SDS011;11525;51.152;4.456;2022-09-09T00:57:04;6.57;;;3.35;;
22715;SDS011;11525;51.152;4.456;2022-09-09T00:59:48;9.18;;;4.40;;
22715;SDS011;11525;51.152;4.456;2022-09-09T01:02:28;9.73;;;5.00;;
22715;SDS011;11525;51.152;4.456;2022-09-09T01:05:18;10.32;;;4.53;;
22715;SDS011;11525;51.152;4.456;2022-09-09T01:07:52;11.27;;;4.90;;
22715;SDS011;11525;51.152;4.456;2022-09-09T01:10:31;8.80;;;5.03;;
22715;SDS011;11525;51.152;4.456;2022-09-09T01:13:22;10.02;;;5.13;;
22715;SDS011;11525;51.152;4.456;2022-09-09T01:15:51;9.32;;;4.45;;
22715;SDS011;11525;51.152;4.456;2022-09-09T01:18:21;13.32;;;5.45;;
22715;SDS011;11525;51.152;4.456;2022-09-09T01:26:37;7.10;;;4.25;;
22715;SDS011;11525;51.152;4.456;2022-09-09T01:29:10;9.38;;;4.68;;
22715;SDS011;11525;51.152;4.456;2022-09-09T01:34:16;9.93;;;4.70;;
22715;SDS011;11525;51.152;4.456;2022-09-09T01:39:17;10.23;;;4.25;;
22715;SDS011;11525;51.152;4.456;2022-09-09T01:41:44;9.50;;;3.95;;
22715;SDS011;11525;51.152;4.456;2022-09-09T01:44:10;7.50;;;4.15;;
22715;SDS011;11525;51.152;4.456;2022-09-09T01:46:36;8.48;;;4.03;;
22715;SDS011;11525;51.152;4.456;2022-09-09T01:49:02;13.13;;;4.13;;
22715;SDS011;11525;51.152;4.456;2022-09-09T01:51:29;7.05;;;4.10;;
22715;SDS011;11525;51.152;4.456;2022-09-09T01:53:55;11.00;;;4.05;;
22715;SDS011;11525;51.152;4.456;2022-09-09T01:56:43;8.30;;;3.60;;
22715;SDS011;11525;51.152;4.456;2022-09-09T02:04:44;11.43;;;4.18;;
22715;SDS011;11525;51.152;4.456;2022-09-09T02:10:09;7.50;;;3.67;;
22715;SDS011;11525;51.152;4.456;2022-09-09T02:12:37;6.63;;;3.72;;
22715;SDS011;11525;51.152;4.456;2022-09-09T02:15:09;8.10;;;4.35;;
22715;SDS011;11525;51.152;4.456;2022-09-09T02:17:45;10.30;;;4.50;;
22715;SDS011;11525;51.152;4.456;2022-09-09T02:20:14;14.90;;;4.90;;
22715;SDS011;11525;51.152;4.456;2022-09-09T02:22:41;11.48;;;4.82;;
22715;SDS011;11525;51.152;4.456;2022-09-09T02:25:09;14.68;;;5.07;;
22715;SDS011;11525;51.152;4.456;2022-09-09T02:27:38;14.07;;;4.75;;
22715;SDS011;11525;51.152;4.456;2022-09-09T02:30:06;11.43;;;5.00;;
22715;SDS011;11525;51.152;4.456;2022-09-09T02:32:33;10.35;;;5.43;;
22715;SDS011;11525;51.152;4.456;2022-09-09T02:35:05;11.75;;;4.43;;
22715;SDS011;11525;51.152;4.456;2022-09-09T02:37:36;7.85;;;4.13;;
22715;SDS011;11525;51.152;4.456;2022-09-09T02:40:04;7.85;;;4.70;;
22715;SDS011;11525;51.152;4.456;2022-09-09T02:42:31;8.40;;;4.22;;
22715;SDS011;11525;51.152;4.456;2022-09-09T02:45:03;9.98;;;4.50;;
22715;SDS011;11525;51.152;4.456;2022-09-09T02:47:35;8.60;;;4.43;;
22715;SDS011;11525;51.152;4.456;2022-09-09T02:50:15;11.32;;;4.25;;
22715;SDS011;11525;51.152;4.456;2022-09-09T02:58:01;9.07;;;4.03;;
22715;SDS011;11525;51.152;4.456;2022-09-09T03:00:31;9.82;;;4.28;;
22715;SDS011;11525;51.152;4.456;2022-09-09T03:02:57;12.68;;;4.93;;
22715;SDS011;11525;51.152;4.456;2022-09-09T03:05:23;12.43;;;4.55;;
22715;SDS011;11525;51.152;4.456;2022-09-09T03:07:49;8.50;;;4.57;;
22715;SDS011;11525;51.152;4.456;2022-09-09T03:10:15;8.70;;;4.47;;
22715;SDS011;11525;51.152;4.456;2022-09-09T03:12:42;14.32;;;4.80;;
22715;SDS011;11525;51.152;4.456;2022-09-09T03:15:08;13.18;;;4.93;;
22715;SDS011;11525;51.152;4.456;2022-09-09T03:17:35;10.55;;;5.13;;
22715;SDS011;11525;51.152;4.456;2022-09-09T03:20:02;16.20;;;6.70;;
22715;SDS011;11525;51.152;4.456;2022-09-09T03:22:31;17.17;;;6.90;;
22715;SDS011;11525;51.152;4.456;2022-09-09T03:24:56;14.18;;;6.43;;
22715;SDS011;11525;51.152;4.456;2022-09-09T03:27:22;19.10;;;6.38;;
22715;SDS011;11525;51.152;4.456;2022-09-09T03:29:48;14.43;;;6.57;;
22715;SDS011;11525;51.152;4.456;2022-09-09T03:32:16;12.68;;;6.22;;
22715;SDS011;11525;51.152;4.456;2022-09-09T03:34:42;19.63;;;5.80;;
22715;SDS011;11525;51.152;4.456;2022-09-09T03:37:09;14.77;;;5.57;;
22715;SDS011;11525;51.152;4.456;2022-09-09T03:39:35;17.00;;;4.72;;
22715;SDS011;11525;51.152;4.456;2022-09-09T03:42:01;18.13;;;4.57;;
22715;SDS011;11525;51.152;4.456;2022-09-09T03:44:29;16.83;;;4.38;;
22715;SDS011;11525;51.152;4.456;2022-09-09T03:46:55;17.75;;;5.20;;
22715;SDS011;11525;51.152;4.456;2022-09-09T03:49:21;12.93;;;4.47;;
22715;SDS011;11525;51.152;4.456;2022-09-09T03:51:47;20.30;;;4.35;;
22715;SDS011;11525;51.152;4.456;2022-09-09T03:54:13;14.93;;;4.50;;
22715;SDS011;11525;51.152;4.456;2022-09-09T03:56:39;13.25;;;4.15;;
22715;SDS011;11525;51.152;4.456;2022-09-09T03:59:06;13.35;;;4.03;;
22715;SDS011;11525;51.152;4.456;2022-09-09T04:01:33;17.05;;;4.72;;
22715;SDS011;11525;51.152;4.456;2022-09-09T04:03:59;19.25;;;4.22;;
22715;SDS011;11525;51.152;4.456;2022-09-09T04:06:27;14.07;;;4.20;;
22715;SDS011;11525;51.152;4.456;2022-09-09T04:08:53;10.68;;;3.85;;
22715;SDS011;11525;51.152;4.456;2022-09-09T04:11:20;16.02;;;4.07;;
22715;SDS011;11525;51.152;4.456;2022-09-09T04:13:45;18.17;;;4.50;;
22715;SDS011;11525;51.152;4.456;2022-09-09T04:16:11;11.05;;;4.07;;
22715;SDS011;11525;51.152;4.456;2022-09-09T04:18:40;16.05;;;4.75;;
22715;SDS011;11525;51.152;4.456;2022-09-09T04:21:08;16.35;;;3.75;;
22715;SDS011;11525;51.152;4.456;2022-09-09T04:23:35;12.77;;;4.38;;
22715;SDS011;11525;51.152;4.456;2022-09-09T04:26:01;17.35;;;5.07;;
22715;SDS011;11525;51.152;4.456;2022-09-09T04:28:29;14.98;;;4.18;;
22715;SDS011;11525;51.152;4.456;2022-09-09T04:30:56;16.65;;;4.70;;
22715;SDS011;11525;51.152;4.456;2022-09-09T04:33:29;14.82;;;4.50;;
22715;SDS011;11525;51.152;4.456;2022-09-09T04:35:56;11.18;;;3.88;;
22715;SDS011;11525;51.152;4.456;2022-09-09T04:38:22;12.38;;;4.00;;
22715;SDS011;11525;51.152;4.456;2022-09-09T04:40:48;15.07;;;4.10;;
22715;SDS011;11525;51.152;4.456;2022-09-09T04:43:16;16.90;;;4.10;;
22715;SDS011;11525;51.152;4.456;2022-09-09T04:45:46;17.02;;;3.53;;
22715;SDS011;11525;51.152;4.456;2022-09-09T04:48:12;12.15;;;3.85;;
22715;SDS011;11525;51.152;4.456;2022-09-09T04:50:38;18.50;;;4.93;;
22715;SDS011;11525;51.152;4.456;2022-09-09T04:53:05;16.63;;;4.30;;
22715;SDS011;11525;51.152;4.456;2022-09-09T04:55:31;15.13;;;3.72;;
22715;SDS011;11525;51.152;4.456;2022-09-09T04:58:02;14.95;;;4.20;;
22715;SDS011;11525;51.152;4.456;2022-09-09T05:00:30;15.80;;;4.22;;
22715;SDS011;11525;51.152;4.456;2022-09-09T05:02:55;13.05;;;3.80;;
22715;SDS011;11525;51.152;4.456;2022-09-09T05:05:21;18.40;;;4.22;;
22715;SDS011;11525;51.152;4.456;2022-09-09T05:07:47;15.48;;;4.57;;
22715;SDS011;11525;51.152;4.456;2022-09-09T05:10:13;12.32;;;3.60;;
22715;SDS011;11525;51.152;4.456;2022-09-09T05:12:40;16.13;;;4.00;;
22715;SDS011;11525;51.152;4.456;2022-09-09T05:15:05;10.27;;;3.38;;
22715;SDS011;11525;51.152;4.456;2022-09-09T05:17:32;9.68;;;3.97;;
22715;SDS011;11525;51.152;4.456;2022-09-09T05:19:58;11.13;;;3.45;;
22715;SDS011;11525;51.152;4.456;2022-09-09T05:22:24;10.45;;;3.80;;
22715;SDS011;11525;51.152;4.456;2022-09-09T05:24:51;11.75;;;3.85;;
22715;SDS011;11525;51.152;4.456;2022-09-09T05:27:19;18.30;;;4.38;;
22715;SDS011;11525;51.152;4.456;2022-09-09T05:29:45;11.32;;;4.07;;
22715;SDS011;11525;51.152;4.456;2022-09-09T05:32:11;18.63;;;4.32;;
22715;SDS011;11525;51.152;4.456;2022-09-09T05:34:38;20.15;;;4.10;;
22715;SDS011;11525;51.152;4.456;2022-09-09T05:37:04;15.68;;;4.55;;
22715;SDS011;11525;51.152;4.456;2022-09-09T05:39:31;10.93;;;3.97;;
22715;SDS011;11525;51.152;4.456;2022-09-09T05:41:58;14.68;;;3.80;;
22715;SDS011;11525;51.152;4.456;2022-09-09T05:44:23;13.80;;;3.63;;
22715;SDS011;11525;51.152;4.456;2022-09-09T05:46:52;17.20;;;4.13;;
22715;SDS011;11525;51.152;4.456;2022-09-09T05:49:19;12.95;;;3.38;;
22715;SDS011;11525;51.152;4.456;2022-09-09T05:51:45;11.52;;;3.47;;
22715;SDS011;11525;51.152;4.456;2022-09-09T05:54:11;17.10;;;4.22;;
22715;SDS011;11525;51.152;4.456;2022-09-09T05:56:40;13.55;;;3.28;;
22715;SDS011;11525;51.152;4.456;2022-09-09T05:59:06;13.23;;;3.70;;
22715;SDS011;11525;51.152;4.456;2022-09-09T06:01:33;15.10;;;4.03;;
22715;SDS011;11525;51.152;4.456;2022-09-09T06:04:00;12.85;;;3.95;;
22715;SDS011;11525;51.152;4.456;2022-09-09T06:06:27;16.30;;;3.88;;
22715;SDS011;11525;51.152;4.456;2022-09-09T06:09:01;11.13;;;3.33;;
22715;SDS011;11525;51.152;4.456;2022-09-09T06:11:31;12.50;;;3.58;;
22715;SDS011;11525;51.152;4.456;2022-09-09T06:13:58;10.98;;;3.58;;
22715;SDS011;11525;51.152;4.456;2022-09-09T06:16:25;11.85;;;3.17;;
22715;SDS011;11525;51.152;4.456;2022-09-09T06:18:53;10.50;;;3.30;;
22715;SDS011;11525;51.152;4.456;2022-09-09T06:21:38;11.57;;;3.90;;
22715;SDS011;11525;51.152;4.456;2022-09-09T06:24:04;14.27;;;4.03;;
22715;SDS011;11525;51.152;4.456;2022-09-09T06:26:31;12.02;;;3.60;;
22715;SDS011;11525;51.152;4.456;2022-09-09T06:29:01;11.63;;;3.95;;
22715;SDS011;11525;51.152;4.456;2022-09-09T06:31:29;21.25;;;4.50;;
22715;SDS011;11525;51.152;4.456;2022-09-09T06:33:58;11.10;;;3.88;;
22715;SDS011;11525;51.152;4.456;2022-09-09T06:36:29;11.60;;;3.17;;
22715;SDS011;11525;51.152;4.456;2022-09-09T06:38:59;16.30;;;3.10;;
22715;SDS011;11525;51.152;4.456;2022-09-09T06:41:26;15.60;;;3.60;;
22715;SDS011;11525;51.152;4.456;2022-09-09T06:43:53;11.63;;;2.85;;
22715;SDS011;11525;51.152;4.456;2022-09-09T06:46:21;12.40;;;3.38;;
22715;SDS011;11525;51.152;4.456;2022-09-09T06:48:55;10.23;;;2.95;;
22715;SDS011;11525;51.152;4.456;2022-09-09T06:51:24;10.50;;;3.20;;
22715;SDS011;11525;51.152;4.456;2022-09-09T06:53:53;10.38;;;3.25;;
22715;SDS011;11525;51.152;4.456;2022-09-09T06:56:22;11.25;;;3.20;;
22715;SDS011;11525;51.152;4.456;2022-09-09T06:58:53;12.40;;;3.20;;
22715;SDS011;11525;51.152;4.456;2022-09-09T07:01:22;11.80;;;3.38;;
22715;SDS011;11525;51.152;4.456;2022-09-09T07:03:53;12.65;;;2.80;;
22715;SDS011;11525;51.152;4.456;2022-09-09T07:06:23;12.55;;;2.85;;
22715;SDS011;11525;51.152;4.456;2022-09-09T07:08:58;11.07;;;3.40;;
22715;SDS011;11525;51.152;4.456;2022-09-09T07:11:29;9.20;;;2.90;;
22715;SDS011;11525;51.152;4.456;2022-09-09T07:13:57;11.02;;;2.60;;
22715;SDS011;11525;51.152;4.456;2022-09-09T07:16:24;7.50;;;2.45;;
22715;SDS011;11525;51.152;4.456;2022-09-09T07:18:50;11.55;;;3.53;;
22715;SDS011;11525;51.152;4.456;2022-09-09T07:21:17;10.68;;;2.63;;
22715;SDS011;11525;51.152;4.456;2022-09-09T07:23:45;9.10;;;2.83;;
22715;SDS011;11525;51.152;4.456;2022-09-09T07:26:15;11.85;;;2.88;;
22715;SDS011;11525;51.152;4.456;2022-09-09T07:28:44;10.07;;;2.53;;
22715;SDS011;11525;51.152;4.456;2022-09-09T07:31:14;14.63;;;3.35;;
22715;SDS011;11525;51.152;4.456;2022-09-09T07:33:45;12.52;;;3.33;;
22715;SDS011;11525;51.152;4.456;2022-09-09T07:38:43;11.65;;;3.10;;
22715;SDS011;11525;51.152;4.456;2022-09-09T07:41:11;9.85;;;2.90;;
22715;SDS011;11525;51.152;4.456;2022-09-09T07:43:43;16.58;;;3.45;;
22715;SDS011;11525;51.152;4.456;2022-09-09T07:46:11;10.55;;;2.70;;
22715;SDS011;11525;51.152;4.456;2022-09-09T07:48:38;12.07;;;2.75;;
22715;SDS011;11525;51.152;4.456;2022-09-09T07:51:10;14.25;;;3.35;;
22715;SDS011;11525;51.152;4.456;2022-09-09T07:53:38;13.45;;;3.30;;
22715;SDS011;11525;51.152;4.456;2022-09-09T07:56:06;16.70;;;3.03;;
22715;SDS011;11525;51.152;4.456;2022-09-09T07:58:34;10.57;;;2.70;;
22715;SDS011;11525;51.152;4.456;2022-09-09T08:01:05;10.43;;;2.83;;
22715;SDS011;11525;51.152;4.456;2022-09-09T08:03:36;10.57;;;2.65;;
22715;SDS011;11525;51.152;4.456;2022-09-09T08:06:03;9.13;;;3.17;;
22715;SDS011;11525;51.152;4.456;2022-09-09T08:08:35;14.20;;;3.10;;
22715;SDS011;11525;51.152;4.456;2022-09-09T08:11:11;12.23;;;2.63;;
22715;SDS011;11525;51.152;4.456;2022-09-09T08:13:40;9.05;;;2.75;;
22715;SDS011;11525;51.152;4.456;2022-09-09T08:16:17;11.95;;;2.50;;
22715;SDS011;11525;51.152;4.456;2022-09-09T08:18:51;8.50;;;2.55;;
22715;SDS011;11525;51.152;4.456;2022-09-09T08:21:19;12.75;;;2.55;;
22715;SDS011;11525;51.152;4.456;2022-09-09T08:23:47;10.55;;;2.45;;
22715;SDS011;11525;51.152;4.456;2022-09-09T08:26:20;9.77;;;2.70;;
22715;SDS011;11525;51.152;4.456;2022-09-09T08:28:51;8.60;;;2.70;;
22715;SDS011;11525;51.152;4.456;2022-09-09T08:31:22;8.35;;;2.75;;
22715;SDS011;11525;51.152;4.456;2022-09-09T08:33:56;10.80;;;2.10;;
22715;SDS011;11525;51.152;4.456;2022-09-09T08:36:25;8.75;;;2.28;;
22715;SDS011;11525;51.152;4.456;2022-09-09T08:38:53;12.63;;;4.63;;
22715;SDS011;11525;51.152;4.456;2022-09-09T08:46:46;8.07;;;2.60;;
22715;SDS011;11525;51.152;4.456;2022-09-09T08:52:29;16.67;;;3.10;;
22715;SDS011;11525;51.152;4.456;2022-09-09T08:55:01;13.35;;;3.22;;
22715;SDS011;11525;51.152;4.456;2022-09-09T08:57:38;11.50;;;3.25;;
22715;SDS011;11525;51.152;4.456;2022-09-09T09:00:04;9.48;;;2.92;;
22715;SDS011;11525;51.152;4.456;2022-09-09T09:02:42;8.50;;;2.83;;
22715;SDS011;11525;51.152;4.456;2022-09-09T09:05:55;9.00;;;2.80;;
22715;SDS011;11525;51.152;4.456;2022-09-09T09:10:53;13.35;;;3.17;;
22715;SDS011;11525;51.152;4.456;2022-09-09T09:16:07;9.05;;;2.83;;
22715;SDS011;11525;51.152;4.456;2022-09-09T09:18:43;12.30;;;3.35;;
22715;SDS011;11525;51.152;4.456;2022-09-09T09:21:13;11.38;;;3.22;;
22715;SDS011;11525;51.152;4.456;2022-09-09T09:23:54;13.10;;;3.30;;
22715;SDS011;11525;51.152;4.456;2022-09-09T09:26:34;13.90;;;3.53;;
22715;SDS011;11525;51.152;4.456;2022-09-09T09:29:07;13.45;;;3.63;;
22715;SDS011;11525;51.152;4.456;2022-09-09T09:31:36;11.40;;;2.97;;
22715;SDS011;11525;51.152;4.456;2022-09-09T09:34:02;10.05;;;2.80;;
22715;SDS011;11525;51.152;4.456;2022-09-09T09:36:37;9.63;;;2.95;;
22715;SDS011;11525;51.152;4.456;2022-09-09T09:39:06;9.75;;;3.17;;
22715;SDS011;11525;51.152;4.456;2022-09-09T09:41:38;10.48;;;2.80;;
22715;SDS011;11525;51.152;4.456;2022-09-09T09:44:05;13.95;;;3.97;;
22715;SDS011;11525;51.152;4.456;2022-09-09T09:49:39;14.30;;;3.35;;
22715;SDS011;11525;51.152;4.456;2022-09-09T09:52:16;13.40;;;2.42;;
22715;SDS011;11525;51.152;4.456;2022-09-09T09:54:47;12.35;;;3.45;;
22715;SDS011;11525;51.152;4.456;2022-09-09T09:57:13;9.75;;;2.63;;
22715;SDS011;11525;51.152;4.456;2022-09-09T09:59:41;11.90;;;3.50;;
22715;SDS011;11525;51.152;4.456;2022-09-09T10:19:34;11.50;;;2.63;;
22715;SDS011;11525;51.152;4.456;2022-09-09T10:30:26;9.20;;;3.03;;
22715;SDS011;11525;51.152;4.456;2022-09-09T10:38:42;8.85;;;2.85;;
22715;SDS011;11525;51.152;4.456;2022-09-09T10:43:55;7.50;;;2.72;;
22715;SDS011;11525;51.152;4.456;2022-09-09T10:55:09;8.93;;;2.13;;
22715;SDS011;11525;51.152;4.456;2022-09-09T10:57:50;6.85;;;2.13;;
22715;SDS011;11525;51.152;4.456;2022-09-09T11:00:27;5.00;;;2.03;;
22715;SDS011;11525;51.152;4.456;2022-09-09T11:03:04;12.25;;;1.90;;
22715;SDS011;11525;51.152;4.456;2022-09-09T11:05:45;6.38;;;2.10;;
22715;SDS011;11525;51.152;4.456;2022-09-09T11:08:18;9.73;;;1.77;;
22715;SDS011;11525;51.152;4.456;2022-09-09T11:10:45;4.13;;;1.90;;
22715;SDS011;11525;51.152;4.456;2022-09-09T11:18:46;5.70;;;2.72;;
22715;SDS011;11525;51.152;4.456;2022-09-09T11:21:16;6.00;;;2.15;;
22715;SDS011;11525;51.152;4.456;2022-09-09T11:23:55;4.80;;;1.83;;
22715;SDS011;11525;51.152;4.456;2022-09-09T11:26:41;9.52;;;2.13;;
22715;SDS011;11525;51.152;4.456;2022-09-09T11:40:27;7.75;;;2.03;;
22715;SDS011;11525;51.152;4.456;2022-09-09T11:43:02;8.15;;;1.83;;
22715;SDS011;11525;51.152;4.456;2022-09-09T11:45:40;3.97;;;1.60;;
22715;SDS011;11525;51.152;4.456;2022-09-09T11:48:22;5.40;;;1.70;;
22715;SDS011;11525;51.152;4.456;2022-09-09T11:50:59;5.10;;;1.77;;
22715;SDS011;11525;51.152;4.456;2022-09-09T11:53:29;6.72;;;1.73;;
22715;SDS011;11525;51.152;4.456;2022-09-09T11:56:03;9.05;;;1.95;;
22715;SDS011;11525;51.152;4.456;2022-09-09T11:58:33;7.13;;;1.67;;
22715;SDS011;11525;51.152;4.456;2022-09-09T12:01:26;6.72;;;1.60;;
22715;SDS011;11525;51.152;4.456;2022-09-09T12:06:56;5.22;;;1.63;;
22715;SDS011;11525;51.152;4.456;2022-09-09T12:09:38;6.85;;;1.45;;
22715;SDS011;11525;51.152;4.456;2022-09-09T12:17:36;1.95;;;1.08;;
22715;SDS011;11525;51.152;4.456;2022-09-09T12:20:03;3.67;;;1.63;;
22715;SDS011;11525;51.152;4.456;2022-09-09T12:22:47;3.22;;;1.58;;
22715;SDS011;11525;51.152;4.456;2022-09-09T12:28:09;4.45;;;1.40;;
22715;SDS011;11525;51.152;4.456;2022-09-09T12:33:18;3.20;;;1.40;;
22715;SDS011;11525;51.152;4.456;2022-09-09T12:35:45;5.38;;;1.70;;
22715;SDS011;11525;51.152;4.456;2022-09-09T12:38:21;4.20;;;1.58;;
22715;SDS011;11525;51.152;4.456;2022-09-09T12:40:57;3.35;;;1.45;;
22715;SDS011;11525;51.152;4.456;2022-09-09T12:43:24;2.75;;;1.65;;
22715;SDS011;11525;51.152;4.456;2022-09-09T12:45:53;4.32;;;1.55;;
22715;SDS011;11525;51.152;4.456;2022-09-09T12:48:35;8.80;;;1.95;;
22715;SDS011;11525;51.152;4.456;2022-09-09T12:51:03;8.60;;;1.73;;
22715;SDS011;11525;51.152;4.456;2022-09-09T12:53:43;3.40;;;1.40;;
22715;SDS011;11525;51.152;4.456;2022-09-09T12:56:18;8.20;;;1.98;;
22715;SDS011;11525;51.152;4.456;2022-09-09T12:58:46;5.22;;;1.60;;
22715;SDS011;11525;51.152;4.456;2022-09-09T13:01:34;5.68;;;2.30;;
22715;SDS011;11525;51.152;4.456;2022-09-09T13:04:00;3.65;;;1.50;;
22715;SDS011;11525;51.152;4.456;2022-09-09T13:06:29;5.47;;;1.50;;
22715;SDS011;11525;51.152;4.456;2022-09-09T13:08:58;7.40;;;2.00;;
22715;SDS011;11525;51.152;4.456;2022-09-09T13:14:17;4.60;;;1.42;;
22715;SDS011;11525;51.152;4.456;2022-09-09T13:16:54;5.40;;;1.60;;
22715;SDS011;11525;51.152;4.456;2022-09-09T13:19:21;6.13;;;1.67;;
22715;SDS011;11525;51.152;4.456;2022-09-09T13:21:50;3.78;;;1.38;;
22715;SDS011;11525;51.152;4.456;2022-09-09T13:24:30;4.45;;;2.00;;
22715;SDS011;11525;51.152;4.456;2022-09-09T13:27:02;5.78;;;2.03;;
22715;SDS011;11525;51.152;4.456;2022-09-09T13:29:30;6.00;;;1.60;;
22715;SDS011;11525;51.152;4.456;2022-09-09T13:32:04;3.15;;;1.42;;
22715;SDS011;11525;51.152;4.456;2022-09-09T13:34:32;5.07;;;1.80;;
22715;SDS011;11525;51.152;4.456;2022-09-09T13:37:07;7.32;;;1.80;;
22715;SDS011;11525;51.152;4.456;2022-09-09T13:39:50;5.03;;;1.50;;
22715;SDS011;11525;51.152;4.456;2022-09-09T13:42:22;7.78;;;2.22;;
22715;SDS011;11525;51.152;4.456;2022-09-09T13:44:53;6.70;;;1.77;;
22715;SDS011;11525;51.152;4.456;2022-09-09T13:47:28;3.75;;;1.75;;
22715;SDS011;11525;51.152;4.456;2022-09-09T13:49:57;5.15;;;1.92;;
22715;SDS011;11525;51.152;4.456;2022-09-09T13:52:23;3.97;;;1.80;;
22715;SDS011;11525;51.152;4.456;2022-09-09T13:54:52;3.00;;;1.30;;
22715;SDS011;11525;51.152;4.456;2022-09-09T13:57:22;6.32;;;1.42;;
22715;SDS011;11525;51.152;4.456;2022-09-09T13:59:50;5.60;;;1.50;;
22715;SDS011;11525;51.152;4.456;2022-09-09T14:02:16;7.45;;;1.67;;
22715;SDS011;11525;51.152;4.456;2022-09-09T14:04:43;4.93;;;1.48;;
22715;SDS011;11525;51.152;4.456;2022-09-09T14:07:10;6.65;;;1.73;;
22715;SDS011;11525;51.152;4.456;2022-09-09T14:09:38;4.25;;;1.23;;
22715;SDS011;11525;51.152;4.456;2022-09-09T14:12:05;4.28;;;1.60;;
22715;SDS011;11525;51.152;4.456;2022-09-09T14:14:34;7.10;;;1.85;;
22715;SDS011;11525;51.152;4.456;2022-09-09T14:16:59;2.13;;;1.30;;
22715;SDS011;11525;51.152;4.456;2022-09-09T14:19:25;5.03;;;1.38;;
22715;SDS011;11525;51.152;4.456;2022-09-09T14:21:51;3.20;;;1.75;;
22715;SDS011;11525;51.152;4.456;2022-09-09T14:24:17;5.10;;;1.80;;
22715;SDS011;11525;51.152;4.456;2022-09-09T14:26:42;5.03;;;2.00;;
22715;SDS011;11525;51.152;4.456;2022-09-09T14:29:08;5.97;;;1.50;;
22715;SDS011;11525;51.152;4.456;2022-09-09T14:31:34;3.65;;;1.52;;
22715;SDS011;11525;51.152;4.456;2022-09-09T14:34:00;3.17;;;1.40;;
22715;SDS011;11525;51.152;4.456;2022-09-09T14:36:25;2.95;;;1.48;;
22715;SDS011;11525;51.152;4.456;2022-09-09T14:38:51;4.22;;;1.63;;
22715;SDS011;11525;51.152;4.456;2022-09-09T14:41:18;4.70;;;1.77;;
22715;SDS011;11525;51.152;4.456;2022-09-09T14:43:47;4.20;;;1.40;;
22715;SDS011;11525;51.152;4.456;2022-09-09T14:46:14;4.63;;;1.40;;
22715;SDS011;11525;51.152;4.456;2022-09-09T14:48:41;2.92;;;1.42;;
22715;SDS011;11525;51.152;4.456;2022-09-09T14:51:08;4.55;;;1.23;;
22715;SDS011;11525;51.152;4.456;2022-09-09T14:53:34;4.53;;;1.35;;
22715;SDS011;11525;51.152;4.456;2022-09-09T14:56:08;4.40;;;1.35;;
22715;SDS011;11525;51.152;4.456;2022-09-09T14:58:35;3.67;;;1.63;;
22715;SDS011;11525;51.152;4.456;2022-09-09T15:01:07;9.93;;;1.77;;
22715;SDS011;11525;51.152;4.456;2022-09-09T15:03:38;5.80;;;1.20;;
22715;SDS011;11525;51.152;4.456;2022-09-09T15:06:12;4.65;;;1.40;;
22715;SDS011;11525;51.152;4.456;2022-09-09T15:08:40;3.35;;;1.30;;
22715;SDS011;11525;51.152;4.456;2022-09-09T15:11:07;4.30;;;1.50;;
22715;SDS011;11525;51.152;4.456;2022-09-09T15:13:34;2.78;;;1.45;;
22715;SDS011;11525;51.152;4.456;2022-09-09T15:18:32;5.28;;;1.40;;
22715;SDS011;11525;51.152;4.456;2022-09-09T15:20:59;3.28;;;1.20;;
22715;SDS011;11525;51.152;4.456;2022-09-09T15:23:28;4.22;;;1.10;;
22715;SDS011;11525;51.152;4.456;2022-09-09T15:25:56;4.22;;;1.08;;
22715;SDS011;11525;51.152;4.456;2022-09-09T15:28:21;4.53;;;1.20;;
22715;SDS011;11525;51.152;4.456;2022-09-09T15:30:51;3.03;;;1.33;;
22715;SDS011;11525;51.152;4.456;2022-09-09T15:33:19;5.10;;;1.30;;
22715;SDS011;11525;51.152;4.456;2022-09-09T15:35:46;4.82;;;1.30;;
22715;SDS011;11525;51.152;4.456;2022-09-09T15:38:12;4.47;;;1.30;;
22715;SDS011;11525;51.152;4.456;2022-09-09T15:40:41;4.38;;;1.40;;
22715;SDS011;11525;51.152;4.456;2022-09-09T15:43:07;5.50;;;1.50;;
22715;SDS011;11525;51.152;4.456;2022-09-09T15:45:34;4.00;;;1.20;;
22715;SDS011;11525;51.152;4.456;2022-09-09T15:48:02;3.85;;;1.13;;
22715;SDS011;11525;51.152;4.456;2022-09-09T15:50:29;5.03;;;1.42;;
22715;SDS011;11525;51.152;4.456;2022-09-09T15:52:59;5.50;;;1.60;;
22715;SDS011;11525;51.152;4.456;2022-09-09T15:55:30;3.65;;;1.40;;
22715;SDS011;11525;51.152;4.456;2022-09-09T15:57:59;2.25;;;1.27;;
22715;SDS011;11525;51.152;4.456;2022-09-09T16:00:26;3.63;;;1.20;;
22715;SDS011;11525;51.152;4.456;2022-09-09T16:27:41;4.90;;;1.73;;
22715;SDS011;11525;51.152;4.456;2022-09-09T16:34:29;5.43;;;1.73;;
22715;SDS011;11525;51.152;4.456;2022-09-09T17:01:47;14.88;;;3.90;;
22715;SDS011;11525;51.152;4.456;2022-09-09T17:04:15;12.55;;;4.22;;
22715;SDS011;11525;51.152;4.456;2022-09-09T17:06:46;9.18;;;3.67;;
22715;SDS011;11525;51.152;4.456;2022-09-09T17:09:14;15.73;;;4.45;;
22715;SDS011;11525;51.152;4.456;2022-09-09T17:11:40;8.15;;;3.40;;
22715;SDS011;11525;51.152;4.456;2022-09-09T17:14:07;7.63;;;3.05;;
22715;SDS011;11525;51.152;4.456;2022-09-09T17:16:36;5.63;;;3.08;;
22715;SDS011;11525;51.152;4.456;2022-09-09T17:19:04;10.10;;;3.90;;
22715;SDS011;11525;51.152;4.456;2022-09-09T17:21:30;8.27;;;3.78;;
22715;SDS011;11525;51.152;4.456;2022-09-09T17:23:57;9.85;;;3.17;;
22715;SDS011;11525;51.152;4.456;2022-09-09T17:26:25;5.78;;;3.22;;
22715;SDS011;11525;51.152;4.456;2022-09-09T17:28:52;9.88;;;2.97;;
22715;SDS011;11525;51.152;4.456;2022-09-09T17:31:20;8.15;;;4.10;;
22715;SDS011;11525;51.152;4.456;2022-09-09T17:33:47;6.68;;;3.42;;
22715;SDS011;11525;51.152;4.456;2022-09-09T17:36:17;6.50;;;3.13;;
22715;SDS011;11525;51.152;4.456;2022-09-09T17:38:45;6.45;;;4.10;;
22715;SDS011;11525;51.152;4.456;2022-09-09T17:41:16;8.32;;;3.85;;
22715;SDS011;11525;51.152;4.456;2022-09-09T17:43:44;6.07;;;4.13;;
22715;SDS011;11525;51.152;4.456;2022-09-09T17:46:11;8.52;;;4.25;;
22715;SDS011;11525;51.152;4.456;2022-09-09T17:48:42;8.13;;;4.70;;
22715;SDS011;11525;51.152;4.456;2022-09-09T17:51:11;8.98;;;4.72;;
22715;SDS011;11525;51.152;4.456;2022-09-09T17:53:40;9.35;;;4.18;;
22715;SDS011;11525;51.152;4.456;2022-09-09T17:56:09;9.13;;;4.47;;
22715;SDS011;11525;51.152;4.456;2022-09-09T17:58:36;12.63;;;5.38;;
22715;SDS011;11525;51.152;4.456;2022-09-09T18:01:09;13.18;;;5.85;;
22715;SDS011;11525;51.152;4.456;2022-09-09T18:03:42;9.65;;;5.28;;
22715;SDS011;11525;51.152;4.456;2022-09-09T18:06:10;8.38;;;4.85;;
22715;SDS011;11525;51.152;4.456;2022-09-09T18:08:41;16.50;;;6.68;;
22715;SDS011;11525;51.152;4.456;2022-09-09T18:11:11;20.35;;;7.00;;
22715;SDS011;11525;51.152;4.456;2022-09-09T18:13:37;12.43;;;5.68;;
22715;SDS011;11525;51.152;4.456;2022-09-09T18:16:06;10.80;;;4.88;;
22715;SDS011;11525;51.152;4.456;2022-09-09T18:18:33;11.45;;;4.50;;